Time;durP1;ratioP1;P1;durP2;ratioP2;P2;SDS_P1;SDS_P2;PMS_P1;PMS_P2;Temp;Humidity;BMP_temperature;BMP_pressure;BME280_temperature;BME280_humidity;BME280_pressure;Samples;Min_cycle;Max_cycle;Signal;HPM_P1;HPM_P2
2023/12/08 00:00:10;;;;;;;130.48;57.55;;;15.50;60.60;;;;;;5075378;28;20098;-80
2023/12/08 00:02:36;;;;;;;131.75;58.50;;;15.40;60.50;;;;;;5074708;28;20040;-79
2023/12/08 00:05:03;;;;;;;131.02;58.47;;;15.40;60.50;;;;;;5055871;28;20052;-79
2023/12/08 00:07:28;;;;;;;131.02;58.05;;;15.40;60.60;;;;;;5076062;28;20039;-78
2023/12/08 00:09:54;;;;;;;129.80;57.35;;;15.40;60.60;;;;;;5078443;28;20036;-79
2023/12/08 00:12:20;;;;;;;131.57;58.75;;;15.40;60.60;;;;;;5077208;28;20183;-78
2023/12/08 00:14:45;;;;;;;131.90;58.25;;;15.30;60.90;;;;;;5077754;28;20052;-79
2023/12/08 00:17:11;;;;;;;131.23;58.50;;;15.30;60.50;;;;;;5080287;28;20373;-78
2023/12/08 00:19:37;;;;;;;130.35;58.00;;;15.30;60.50;;;;;;5062121;28;20071;-77
2023/12/08 00:22:03;;;;;;;132.98;58.75;;;15.30;60.50;;;;;;5056055;28;20524;-78
2023/12/08 00:24:28;;;;;;;132.05;58.80;;;15.30;60.60;;;;;;5072929;28;20565;-79
2023/12/08 00:26:54;;;;;;;132.25;58.63;;;15.30;60.50;;;;;;5077650;28;20688;-78
2023/12/08 00:29:20;;;;;;;128.70;57.35;;;15.30;60.60;;;;;;5077121;28;20132;-78
2023/12/08 00:31:46;;;;;;;130.05;58.00;;;15.30;60.60;;;;;;5082565;28;20120;-77
2023/12/08 00:34:11;;;;;;;131.02;58.75;;;15.30;60.50;;;;;;5058964;28;20036;-79
2023/12/08 00:36:39;;;;;;;131.40;58.58;;;15.20;60.50;;;;;;5060952;28;20371;-78
2023/12/08 00:39:05;;;;;;;130.27;58.63;;;15.30;60.60;;;;;;5064937;28;20132;-78
2023/12/08 00:41:31;;;;;;;130.73;57.60;;;15.20;60.50;;;;;;5076300;28;20570;-78
2023/12/08 00:43:57;;;;;;;132.90;59.55;;;15.20;60.50;;;;;;5060033;28;20198;-78
2023/12/08 00:46:22;;;;;;;131.35;58.28;;;15.20;60.60;;;;;;5075169;28;20045;-77
2023/12/08 00:48:48;;;;;;;130.95;58.42;;;15.20;60.50;;;;;;5076039;28;20183;-78
2023/12/08 00:51:14;;;;;;;130.07;57.90;;;15.20;60.60;;;;;;5075486;28;20095;-77
2023/12/08 00:53:41;;;;;;;130.02;58.33;;;15.20;60.60;;;;;;5078798;28;20056;-76
2023/12/08 00:56:07;;;;;;;131.50;58.88;;;15.10;60.60;;;;;;5074936;28;20036;-77
2023/12/08 00:58:33;;;;;;;131.75;58.42;;;15.10;60.50;;;;;;5073615;28;20767;-78
2023/12/08 01:00:58;;;;;;;129.95;58.42;;;15.20;60.60;;;;;;5073416;28;20071;-78
2023/12/08 01:03:24;;;;;;;130.00;58.13;;;15.10;60.50;;;;;;5078139;28;20060;-77
2023/12/08 01:05:50;;;;;;;130.90;57.95;;;15.10;60.60;;;;;;5076076;28;20465;-79
2023/12/08 01:08:15;;;;;;;130.75;58.42;;;15.10;60.60;;;;;;5077949;28;20501;-77
2023/12/08 01:10:41;;;;;;;130.63;58.38;;;15.10;60.60;;;;;;5077549;28;20044;-80
2023/12/08 01:13:07;;;;;;;131.55;58.83;;;15.10;60.50;;;;;;5053526;28;20144;-80
2023/12/08 01:15:33;;;;;;;129.75;58.25;;;15.10;60.60;;;;;;5058528;28;20044;-78
2023/12/08 01:17:59;;;;;;;128.98;57.75;;;15.00;60.60;;;;;;5077541;28;20040;-79
2023/12/08 01:20:24;;;;;;;129.65;58.22;;;15.00;60.60;;;;;;5079853;28;20040;-79
2023/12/08 01:22:51;;;;;;;130.18;58.13;;;15.00;60.60;;;;;;5078462;28;20093;-78
2023/12/08 01:25:16;;;;;;;129.23;57.95;;;15.00;60.60;;;;;;5079601;28;20047;-78
2023/12/08 01:27:42;;;;;;;129.80;58.53;;;15.00;60.70;;;;;;5076160;28;20453;-77
2023/12/08 01:30:08;;;;;;;130.35;58.33;;;15.00;60.60;;;;;;5077733;28;20044;-81
2023/12/08 01:32:34;;;;;;;130.00;57.75;;;15.00;60.60;;;;;;5078339;28;20044;-78
2023/12/08 01:34:59;;;;;;;130.13;57.75;;;15.00;60.60;;;;;;5060581;28;20471;-80
2023/12/08 01:37:25;;;;;;;128.50;57.47;;;15.00;60.60;;;;;;5058417;28;20431;-77
2023/12/08 01:39:51;;;;;;;129.95;58.33;;;15.00;60.60;;;;;;5075599;28;20032;-77
2023/12/08 01:42:16;;;;;;;130.18;58.33;;;15.00;60.60;;;;;;5075466;28;20064;-77
2023/12/08 01:44:42;;;;;;;128.63;57.65;;;15.00;60.60;;;;;;5080545;28;20084;-78
2023/12/08 01:47:08;;;;;;;130.35;58.25;;;14.90;60.50;;;;;;5056516;28;20362;-78
2023/12/08 01:49:34;;;;;;;129.80;57.13;;;14.90;60.60;;;;;;5077265;28;20037;-76
2023/12/08 01:52:00;;;;;;;129.13;57.63;;;14.90;60.70;;;;;;5060126;28;20499;-76
2023/12/08 01:54:26;;;;;;;129.35;57.67;;;14.90;60.70;;;;;;5075172;28;20037;-77
2023/12/08 01:56:52;;;;;;;127.50;56.45;;;14.90;60.80;;;;;;5076150;28;20045;-81
2023/12/08 01:59:18;;;;;;;128.73;57.67;;;14.90;60.80;;;;;;5071700;28;20040;-81
2023/12/08 02:01:44;;;;;;;128.35;56.88;;;14.90;60.90;;;;;;5074725;28;20586;-81
2023/12/08 02:04:09;;;;;;;128.90;57.30;;;14.90;60.80;;;;;;5075824;28;20510;-81
2023/12/08 02:06:35;;;;;;;129.10;57.53;;;14.90;60.80;;;;;;5078290;28;20915;-81
2023/12/08 02:09:02;;;;;;;128.70;57.15;;;14.90;60.90;;;;;;5074997;28;20826;-80
2023/12/08 02:11:27;;;;;;;127.85;57.28;;;14.90;60.90;;;;;;5077349;28;20114;-81
2023/12/08 02:13:53;;;;;;;129.77;57.63;;;14.80;60.80;;;;;;5077313;28;20431;-80
2023/12/08 02:16:24;;;;;;;128.27;57.17;;;14.80;60.80;;;;;;5077050;28;20049;-80
2023/12/08 02:18:51;;;;;;;128.55;57.80;;;14.80;60.90;;;;;;5071405;28;22516;-80
2023/12/08 02:21:17;;;;;;;128.00;57.53;;;14.80;60.90;;;;;;5072609;28;20048;-81
2023/12/08 02:23:49;;;;;;;128.05;57.10;;;14.80;60.90;;;;;;5074450;28;20163;-81
2023/12/08 02:26:16;;;;;;;129.15;57.55;;;14.80;60.90;;;;;;5080046;28;20045;-80
2023/12/08 02:28:43;;;;;;;127.90;56.90;;;14.80;61.00;;;;;;5081759;28;20143;-80
2023/12/08 02:31:14;;;;;;;129.20;57.47;;;14.80;61.00;;;;;;5081593;28;20041;-80
2023/12/08 02:33:42;;;;;;;;;;;14.80;61.10;;;;;;5081098;28;20094;-81
2023/12/08 02:36:08;;;;;;;128.93;57.40;;;14.70;61.10;;;;;;5079827;28;25040;-80
2023/12/08 02:38:35;;;;;;;130.98;58.03;;;14.80;61.10;;;;;;5082373;28;20049;-80
2023/12/08 02:41:01;;;;;;;129.05;57.92;;;14.80;61.00;;;;;;5075516;28;20181;-80
2023/12/08 02:43:27;;;;;;;128.55;57.60;;;14.70;61.00;;;;;;5077500;28;20055;-79
2023/12/08 02:45:52;;;;;;;128.68;57.67;;;14.80;61.00;;;;;;5075463;28;20036;-78
2023/12/08 02:48:18;;;;;;;128.48;57.20;;;14.70;61.00;;;;;;5057396;28;23219;-80
2023/12/08 02:50:44;;;;;;;128.10;57.40;;;14.80;61.70;;;;;;5075443;28;20063;-81
2023/12/08 02:53:09;;;;;;;128.30;57.60;;;14.70;61.00;;;;;;5073841;28;20072;-78
2023/12/08 02:55:35;;;;;;;128.10;57.42;;;14.70;61.00;;;;;;5073338;28;20130;-79
2023/12/08 02:58:01;;;;;;;128.85;57.78;;;14.70;61.00;;;;;;5075482;28;20080;-79
2023/12/08 03:00:26;;;;;;;128.85;57.67;;;14.70;61.00;;;;;;5071848;28;20175;-78
2023/12/08 03:02:52;;;;;;;127.80;56.60;;;14.70;61.10;;;;;;5060184;28;20040;-80
2023/12/08 03:05:18;;;;;;;127.80;57.53;;;14.70;61.10;;;;;;5070670;28;20458;-78
2023/12/08 03:07:44;;;;;;;129.50;57.72;;;14.70;61.10;;;;;;5077362;28;20127;-79
2023/12/08 03:10:09;;;;;;;128.45;57.67;;;14.70;61.10;;;;;;5076111;28;20591;-78
2023/12/08 03:12:35;;;;;;;128.93;57.60;;;14.70;61.20;;;;;;5076633;28;20057;-78
2023/12/08 03:15:01;;;;;;;126.90;56.97;;;14.70;61.20;;;;;;5074266;28;20479;-78
2023/12/08 03:17:26;;;;;;;129.15;57.53;;;14.70;61.20;;;;;;5074527;28;20051;-79
2023/12/08 03:19:52;;;;;;;128.38;57.45;;;14.70;61.20;;;;;;5073658;28;20052;-78
2023/12/08 03:22:18;;;;;;;128.85;57.00;;;14.70;61.20;;;;;;5076145;28;20507;-81
2023/12/08 03:24:43;;;;;;;127.95;57.45;;;14.70;61.20;;;;;;5079372;28;20522;-80
2023/12/08 03:27:09;;;;;;;129.82;57.78;;;14.70;61.40;;;;;;5077379;28;20044;-79
2023/12/08 03:29:41;;;;;;;127.18;56.67;;;14.70;61.30;;;;;;5077471;28;20533;-79
2023/12/08 03:32:07;;;;;;;128.15;57.08;;;14.70;61.50;;;;;;5078312;28;20218;-81
2023/12/08 03:34:33;;;;;;;128.02;57.60;;;14.60;61.30;;;;;;5072546;28;20036;-78
2023/12/08 03:36:59;;;;;;;128.48;56.80;;;14.60;62.10;;;;;;5058040;28;20037;-80
2023/12/08 03:39:25;;;;;;;128.13;56.10;;;14.70;61.50;;;;;;5054765;28;20059;-79
2023/12/08 03:41:50;;;;;;;129.10;56.92;;;14.60;61.50;;;;;;5074697;28;20610;-80
2023/12/08 03:44:16;;;;;;;129.10;57.38;;;14.60;61.40;;;;;;5074162;28;20045;-81
2023/12/08 03:46:42;;;;;;;127.15;56.83;;;14.60;61.40;;;;;;5077795;28;20501;-81
2023/12/08 03:49:08;;;;;;;129.98;57.63;;;14.60;61.40;;;;;;5069475;28;20039;-81
2023/12/08 03:51:34;;;;;;;128.10;57.45;;;14.60;61.50;;;;;;5071828;28;20048;-82
2023/12/08 03:54:00;;;;;;;128.88;57.17;;;14.60;61.50;;;;;;5077001;28;20053;-81
2023/12/08 03:56:25;;;;;;;130.65;56.92;;;14.60;61.50;;;;;;5077033;28;20067;-81
2023/12/08 03:58:51;;;;;;;128.82;56.28;;;14.60;61.60;;;;;;5078447;28;20467;-80
2023/12/08 04:01:18;;;;;;;128.20;57.13;;;14.60;61.80;;;;;;5078478;28;20653;-80
2023/12/08 04:03:44;;;;;;;129.38;57.17;;;14.60;61.70;;;;;;5070601;28;20049;-79
2023/12/08 04:06:09;;;;;;;128.98;56.63;;;14.60;61.80;;;;;;5081591;28;20066;-80
2023/12/08 04:08:35;;;;;;;128.60;57.22;;;14.60;61.90;;;;;;5073600;28;20044;-79
2023/12/08 04:11:01;;;;;;;127.95;57.28;;;14.60;62.00;;;;;;5057821;28;20086;-80
2023/12/08 04:13:26;;;;;;;128.13;56.60;;;14.60;62.10;;;;;;5080061;28;20080;-81
2023/12/08 04:15:52;;;;;;;128.93;57.03;;;14.60;62.10;;;;;;5077678;28;20559;-81
2023/12/08 04:18:18;;;;;;;128.75;57.17;;;14.60;62.10;;;;;;5066180;28;20052;-80
2023/12/08 04:20:43;;;;;;;128.60;57.03;;;14.60;62.10;;;;;;5075686;28;20033;-80
2023/12/08 04:23:09;;;;;;;127.10;56.78;;;14.60;62.20;;;;;;5073225;28;20080;-79
2023/12/08 04:25:35;;;;;;;126.32;56.80;;;14.60;62.20;;;;;;5080256;28;20124;-81
2023/12/08 04:28:01;;;;;;;132.68;57.33;;;14.60;62.20;;;;;;5075125;28;20099;-81
2023/12/08 04:30:27;;;;;;;128.80;56.83;;;14.60;62.30;;;;;;5075507;28;20048;-81
2023/12/08 04:32:53;;;;;;;128.55;57.53;;;14.60;62.30;;;;;;5060290;28;20381;-79
2023/12/08 04:35:19;;;;;;;128.68;56.97;;;14.50;62.30;;;;;;5073649;28;20702;-80
2023/12/08 04:37:44;;;;;;;128.13;56.17;;;14.60;62.40;;;;;;5075443;28;20598;-81
2023/12/08 04:40:10;;;;;;;127.47;56.60;;;14.60;62.40;;;;;;5073680;28;21135;-81
2023/12/08 04:42:36;;;;;;;130.02;57.42;;;14.50;62.30;;;;;;5049596;28;20546;-80
2023/12/08 04:45:03;;;;;;;127.57;56.90;;;14.60;62.40;;;;;;5051777;28;20045;-81
2023/12/08 04:47:28;;;;;;;126.00;56.45;;;14.50;62.40;;;;;;5053279;28;20053;-81
2023/12/08 04:49:54;;;;;;;128.75;57.10;;;14.60;62.40;;;;;;5054257;28;20071;-79
2023/12/08 04:52:20;;;;;;;129.80;56.72;;;14.60;62.40;;;;;;5058235;28;20142;-79
2023/12/08 04:54:46;;;;;;;126.80;56.70;;;14.60;62.30;;;;;;5056693;28;20170;-78
2023/12/08 04:57:11;;;;;;;127.18;56.58;;;14.60;62.40;;;;;;5059508;28;20116;-80
2023/12/08 04:59:38;;;;;;;130.82;57.03;;;14.50;62.20;;;;;;5060456;28;20121;-79
2023/12/08 05:02:04;;;;;;;127.57;57.15;;;14.50;62.30;;;;;;5063759;28;20052;-79
2023/12/08 05:04:30;;;;;;;128.48;56.80;;;14.50;62.30;;;;;;5066551;28;20071;-79
2023/12/08 05:06:56;;;;;;;126.07;56.22;;;14.50;62.40;;;;;;5063587;28;20771;-79
2023/12/08 05:09:21;;;;;;;128.48;56.95;;;14.50;62.40;;;;;;5063636;28;20530;-79
2023/12/08 05:11:47;;;;;;;128.95;57.05;;;14.50;62.40;;;;;;5058947;28;20177;-79
2023/12/08 05:14:13;;;;;;;129.73;57.40;;;14.50;62.50;;;;;;5057197;28;20687;-80
2023/12/08 05:16:39;;;;;;;126.60;57.20;;;14.50;62.40;;;;;;5057483;28;20060;-80
2023/12/08 05:19:05;;;;;;;127.70;57.05;;;14.50;62.50;;;;;;5057046;28;20049;-79
2023/12/08 05:21:30;;;;;;;128.55;57.58;;;14.50;62.40;;;;;;5058639;28;20053;-80
2023/12/08 05:23:56;;;;;;;127.10;56.97;;;14.50;62.40;;;;;;5056501;28;20044;-79
2023/12/08 05:26:23;;;;;;;133.75;57.20;;;14.50;62.50;;;;;;5055330;28;20467;-80
2023/12/08 05:28:49;;;;;;;128.68;56.95;;;14.50;62.50;;;;;;5054072;28;20044;-76
2023/12/08 05:31:15;;;;;;;125.90;56.08;;;14.40;62.40;;;;;;5056045;28;20048;-76
2023/12/08 05:33:42;;;;;;;128.70;57.03;;;14.50;62.50;;;;;;5050569;28;20037;-76
2023/12/08 05:36:09;;;;;;;127.40;57.13;;;14.40;62.50;;;;;;5056422;28;20514;-77
2023/12/08 05:38:35;;;;;;;129.77;57.15;;;14.50;62.50;;;;;;5053912;28;20049;-77
2023/12/08 05:41:01;;;;;;;128.27;57.08;;;14.50;62.40;;;;;;5064050;28;20155;-76
2023/12/08 05:43:28;;;;;;;130.25;56.90;;;14.50;62.50;;;;;;5078902;28;20047;-77
2023/12/08 05:45:53;;;;;;;125.93;56.40;;;14.50;62.50;;;;;;5077877;28;20408;-75
2023/12/08 05:48:19;;;;;;;127.80;57.20;;;14.50;62.50;;;;;;5072640;28;20651;-76
2023/12/08 05:50:45;;;;;;;128.57;57.70;;;14.50;62.50;;;;;;5057470;28;20051;-76
2023/12/08 05:53:10;;;;;;;129.63;57.03;;;14.40;62.50;;;;;;5072673;28;20049;-77
2023/12/08 05:55:36;;;;;;;128.57;57.05;;;14.40;62.60;;;;;;5080010;28;20526;-76
2023/12/08 05:58:01;;;;;;;129.68;57.15;;;14.50;62.60;;;;;;5059251;28;20846;-77
2023/12/08 06:00:27;;;;;;;128.20;57.22;;;14.40;62.70;;;;;;5073839;28;20175;-78
2023/12/08 06:02:53;;;;;;;128.23;57.08;;;14.40;62.70;;;;;;5074512;28;20695;-78
2023/12/08 06:05:19;;;;;;;129.68;57.60;;;14.40;62.80;;;;;;5071377;28;20110;-76
2023/12/08 06:07:44;;;;;;;129.07;56.90;;;14.40;62.90;;;;;;5073696;28;20043;-82
2023/12/08 06:10:13;;;;;;;128.23;56.90;;;14.40;62.90;;;;;;5074743;28;20148;-77
2023/12/08 06:12:39;;;;;;;129.40;56.58;;;14.50;63.20;;;;;;5081643;28;20041;-78
2023/12/08 06:15:09;;;;;;;129.52;57.30;;;14.40;63.20;;;;;;5076190;28;20049;-78
2023/12/08 06:17:36;;;;;;;131.15;56.65;;;14.40;63.30;;;;;;5054231;28;20929;-77
2023/12/08 06:20:04;;;;;;;131.98;56.72;;;14.40;64.10;;;;;;5074609;28;20041;-78
2023/12/08 06:22:30;;;;;;;130.13;57.25;;;14.40;63.60;;;;;;5072503;28;20048;-76
2023/12/08 06:24:56;;;;;;;127.10;56.35;;;14.40;63.70;;;;;;5073750;28;20053;-76
2023/12/08 06:27:21;;;;;;;129.27;57.03;;;14.40;63.70;;;;;;5076602;28;20043;-75
2023/12/08 06:29:47;;;;;;;133.43;56.60;;;14.40;63.70;;;;;;5056805;28;20461;-78
2023/12/08 06:32:13;;;;;;;134.38;57.67;;;14.40;63.90;;;;;;5073414;28;20555;-76
2023/12/08 06:34:38;;;;;;;130.20;57.05;;;14.40;64.20;;;;;;5074742;28;20044;-80
2023/12/08 06:37:04;;;;;;;129.77;57.42;;;14.50;64.10;;;;;;5074112;28;20040;-79
2023/12/08 06:39:30;;;;;;;137.23;57.70;;;14.40;64.20;;;;;;5049977;28;22821;-79
2023/12/08 06:41:55;;;;;;;134.13;57.60;;;14.50;65.20;;;;;;5055900;28;20534;-78
2023/12/08 06:44:21;;;;;;;133.85;57.72;;;14.40;65.00;;;;;;5070119;28;20044;-79
2023/12/08 06:46:46;;;;;;;136.48;58.72;;;14.40;65.50;;;;;;5080894;28;20072;-78
2023/12/08 06:49:12;;;;;;;134.23;58.10;;;14.50;65.30;;;;;;5078021;28;20127;-78
2023/12/08 06:51:38;;;;;;;135.45;57.88;;;14.50;65.20;;;;;;5071644;28;20071;-78
2023/12/08 06:54:07;;;;;;;132.68;57.50;;;14.50;65.20;;;;;;5074731;28;20040;-78
2023/12/08 06:56:32;;;;;;;130.55;57.05;;;14.40;65.20;;;;;;5077413;28;20036;-78
2023/12/08 06:58:58;;;;;;;133.85;57.33;;;14.40;65.30;;;;;;5073233;28;20660;-79
2023/12/08 07:01:24;;;;;;;137.98;57.90;;;14.40;65.30;;;;;;5079735;28;20044;-77
2023/12/08 07:03:49;;;;;;;133.80;57.38;;;14.40;65.30;;;;;;5072491;28;20389;-80
2023/12/08 07:06:15;;;;;;;135.23;57.58;;;14.40;65.30;;;;;;5076412;28;20091;-79
2023/12/08 07:08:41;;;;;;;130.68;57.47;;;14.40;65.30;;;;;;5066844;28;20041;-78
2023/12/08 07:11:08;;;;;;;130.13;57.45;;;14.50;65.30;;;;;;5050222;28;20444;-79
2023/12/08 07:13:34;;;;;;;133.43;57.08;;;14.40;65.20;;;;;;5078907;28;20041;-79
2023/12/08 07:15:59;;;;;;;133.40;57.63;;;14.50;65.30;;;;;;5076256;28;20044;-78
2023/12/08 07:18:25;;;;;;;132.48;58.03;;;14.40;65.20;;;;;;5072228;28;20551;-78
2023/12/08 07:20:51;;;;;;;137.07;58.55;;;14.50;65.30;;;;;;5074558;28;20045;-78
2023/12/08 07:23:16;;;;;;;132.65;57.05;;;14.40;65.30;;;;;;5083384;22;20135;-39
2023/12/08 07:25:42;;;;;;;131.13;56.58;;;14.50;65.20;;;;;;5059237;28;20037;-39
2023/12/08 07:28:08;;;;;;;128.88;56.40;;;14.40;65.10;;;;;;5057618;28;20921;-38
2023/12/08 07:30:33;;;;;;;133.25;56.97;;;14.50;65.20;;;;;;5054567;28;20486;-38
2023/12/08 07:32:59;;;;;;;131.38;56.72;;;14.50;65.10;;;;;;5055030;28;20953;-39
2023/12/08 07:38:00;;;;;;;132.45;57.08;;;14.50;65.20;;;;;;5134723;22;20542;-42
2023/12/08 07:40:26;;;;;;;134.13;57.95;;;14.40;65.10;;;;;;5048966;28;20571;-43
2023/12/08 07:42:53;;;;;;;134.98;57.92;;;14.40;65.20;;;;;;5051009;28;20037;-41
2023/12/08 07:45:19;;;;;;;135.07;57.85;;;14.50;65.40;;;;;;5055635;28;20040;-42
2023/12/08 07:47:44;;;;;;;133.13;57.38;;;14.40;65.70;;;;;;5056838;28;20045;-42
2023/12/08 07:50:10;;;;;;;133.38;58.50;;;14.40;65.80;;;;;;5044232;28;20049;-42
2023/12/08 07:52:37;;;;;;;135.60;58.33;;;14.60;65.70;;;;;;5054518;28;20045;-42
2023/12/08 07:55:03;;;;;;;135.00;58.53;;;14.70;65.00;;;;;;5047079;28;20148;-41
2023/12/08 07:57:28;;;;;;;131.65;57.55;;;14.80;65.00;;;;;;5048997;28;20026;-39
2023/12/08 07:59:54;;;;;;;133.48;58.17;;;14.80;64.80;;;;;;5045370;28;20041;-40
2023/12/08 08:02:20;;;;;;;135.23;58.42;;;14.90;64.80;;;;;;5056237;28;20048;-42
2023/12/08 08:04:45;;;;;;;135.07;57.22;;;15.00;65.20;;;;;;5056255;28;20164;-38
2023/12/08 08:07:11;;;;;;;134.90;58.22;;;15.00;64.90;;;;;;5046599;28;20037;-43
2023/12/08 08:09:37;;;;;;;137.30;58.28;;;15.00;64.70;;;;;;5051270;28;20044;-44
2023/12/08 08:12:03;;;;;;;133.10;58.00;;;15.00;64.70;;;;;;5055876;28;20041;-44
2023/12/08 08:14:28;;;;;;;135.25;58.13;;;15.00;64.50;;;;;;5054506;28;20520;-43
2023/12/08 08:16:54;;;;;;;136.25;57.78;;;15.10;64.40;;;;;;5054310;28;20028;-44
2023/12/08 08:19:20;;;;;;;137.45;57.03;;;15.00;64.40;;;;;;5058542;28;20052;-43
2023/12/08 08:21:45;;;;;;;137.25;59.60;;;15.10;64.40;;;;;;5051762;28;20029;-44
2023/12/08 08:24:11;;;;;;;138.48;59.00;;;15.10;64.90;;;;;;5048738;28;20040;-43
2023/12/08 08:26:37;;;;;;;140.85;58.47;;;15.10;64.80;;;;;;5057156;28;20041;-44
2023/12/08 08:29:03;;;;;;;137.77;58.47;;;15.10;64.90;;;;;;5055620;28;20128;-43
2023/12/08 08:31:28;;;;;;;139.05;58.47;;;15.10;64.60;;;;;;5051579;28;20033;-44
2023/12/08 08:33:55;;;;;;;140.85;62.55;;;15.10;64.90;;;;;;5073900;22;20080;-86
2023/12/08 08:36:20;;;;;;;137.38;59.08;;;15.10;65.00;;;;;;5045194;28;20046;-85
2023/12/08 08:38:46;;;;;;;156.55;59.15;;;15.10;65.10;;;;;;5049141;28;20372;-86
2023/12/08 08:41:12;;;;;;;153.90;59.75;;;15.10;65.40;;;;;;5047466;28;20141;-86
2023/12/08 08:43:37;;;;;;;139.55;59.25;;;15.20;66.40;;;;;;5059523;28;20421;-87
2023/12/08 08:46:03;;;;;;;140.93;58.10;;;15.30;66.40;;;;;;5049749;28;20408;-87
2023/12/08 08:48:29;;;;;;;141.82;59.15;;;15.30;66.10;;;;;;5048505;28;20190;-86
2023/12/08 08:50:55;;;;;;;140.75;60.35;;;15.30;65.90;;;;;;5043542;28;20120;-86
2023/12/08 08:53:21;;;;;;;144.98;59.60;;;15.30;65.90;;;;;;5047138;28;20562;-87
2023/12/08 08:55:47;;;;;;;145.15;59.25;;;15.30;65.80;;;;;;5059294;28;21023;-88
2023/12/08 08:58:12;;;;;;;152.48;59.45;;;15.30;65.80;;;;;;5065454;28;20108;-88
2023/12/08 09:00:38;;;;;;;146.75;61.10;;;15.40;66.10;;;;;;5049173;28;20042;-87
2023/12/08 09:03:04;;;;;;;142.98;60.67;;;15.40;66.10;;;;;;5042855;28;20179;-86
2023/12/08 09:05:30;;;;;;;144.98;60.45;;;15.50;66.10;;;;;;5043395;28;20626;-87
2023/12/08 09:07:56;;;;;;;142.13;59.50;;;15.50;66.20;;;;;;5060746;28;20037;-87
2023/12/08 09:10:22;;;;;;;141.15;58.95;;;15.50;66.20;;;;;;5055771;28;20092;-87
2023/12/08 09:12:48;;;;;;;148.45;60.15;;;15.50;65.90;;;;;;5069357;28;20033;-87
2023/12/08 09:15:13;;;;;;;142.88;59.15;;;15.50;66.10;;;;;;5043127;28;20549;-82
2023/12/08 09:17:40;;;;;;;139.68;59.65;;;15.50;66.40;;;;;;5050883;28;20106;-82
2023/12/08 09:20:12;;;;;;;144.70;60.20;;;15.50;66.50;;;;;;5053533;28;20037;-86
2023/12/08 09:22:37;;;;;;;147.15;61.22;;;15.60;68.10;;;;;;5053141;28;20095;-86
2023/12/08 09:25:03;;;;;;;150.95;59.47;;;15.60;67.70;;;;;;5050254;28;20145;-87
2023/12/08 09:27:29;;;;;;;139.98;59.13;;;15.70;67.50;;;;;;5041471;28;20496;-83
2023/12/08 09:29:55;;;;;;;146.57;63.33;;;15.70;67.30;;;;;;5036412;28;20132;-87
2023/12/08 09:32:20;;;;;;;152.93;67.95;;;15.70;67.20;;;;;;5091367;22;20057;-89
2023/12/08 09:34:46;;;;;;;162.00;68.80;;;15.80;67.30;;;;;;5056707;28;20056;-85
2023/12/08 09:37:12;;;;;;;154.10;69.28;;;15.80;67.10;;;;;;5059060;28;20139;-86
2023/12/08 09:39:37;;;;;;;145.27;65.15;;;15.80;67.30;;;;;;5064101;28;20044;-91
2023/12/08 09:42:10;;;;;;;147.85;66.43;;;15.90;66.90;;;;;;5063931;22;20065;-39
2023/12/08 09:44:36;;;;;;;151.13;66.47;;;15.80;67.10;;;;;;5037724;28;20164;-35
2023/12/08 09:47:07;;;;;;;152.35;65.50;;;15.90;67.50;;;;;;5048926;28;20123;-34
2023/12/08 09:49:42;;;;;;;146.15;64.90;;;15.90;68.10;;;;;;5047061;28;20053;-35
2023/12/08 09:52:09;;;;;;;150.65;65.30;;;16.00;68.40;;;;;;5047748;28;20521;-37
2023/12/08 09:54:35;;;;;;;150.98;65.20;;;16.00;68.80;;;;;;5046069;28;20514;-36
2023/12/08 09:57:03;;;;;;;156.45;68.18;;;16.00;68.80;;;;;;5081170;22;20509;-78
2023/12/08 09:59:29;;;;;;;149.32;67.70;;;16.00;68.50;;;;;;5050008;28;20048;-76
2023/12/08 10:01:55;;;;;;;150.50;65.68;;;16.00;68.40;;;;;;5054550;28;20056;-75
2023/12/08 10:04:21;;;;;;;149.05;65.70;;;16.00;68.50;;;;;;5053482;28;20045;-77
2023/12/08 10:06:48;;;;;;;150.05;66.75;;;16.00;69.10;;;;;;5056681;28;20041;-75
2023/12/08 10:09:17;;;;;;;155.32;66.80;;;16.00;69.20;;;;;;5044146;28;20045;-74
2023/12/08 10:11:44;;;;;;;148.98;66.70;;;16.00;69.20;;;;;;5051421;28;20041;-76
2023/12/08 10:14:12;;;;;;;154.80;66.97;;;16.10;69.40;;;;;;5056066;28;20154;-76
2023/12/08 10:16:38;;;;;;;145.23;65.60;;;16.20;69.30;;;;;;5047954;28;20075;-76
2023/12/08 10:19:05;;;;;;;158.27;65.75;;;16.20;69.30;;;;;;5051075;28;20128;-76
2023/12/08 10:21:31;;;;;;;147.52;65.32;;;16.20;69.30;;;;;;5053122;28;20242;-78
2023/12/08 10:24:03;;;;;;;153.38;66.75;;;16.20;69.20;;;;;;5049319;28;20510;-80
2023/12/08 10:26:32;;;;;;;150.55;66.35;;;16.20;69.00;;;;;;5044896;28;20046;-78
2023/12/08 10:28:59;;;;;;;144.75;64.50;;;16.30;70.10;;;;;;5053046;28;20621;-77
2023/12/08 10:31:26;;;;;;;145.45;64.95;;;16.30;68.60;;;;;;5048781;28;20042;-78
2023/12/08 10:33:52;;;;;;;152.27;65.13;;;16.30;69.00;;;;;;5048073;28;20037;-79
2023/12/08 10:36:18;;;;;;;153.25;65.85;;;16.30;68.40;;;;;;5049034;28;20136;-76
2023/12/08 10:38:46;;;;;;;149.07;65.07;;;16.30;68.30;;;;;;5046518;28;20771;-78
2023/12/08 10:41:12;;;;;;;148.73;63.45;;;16.30;68.30;;;;;;5051391;28;20041;-80
2023/12/08 10:43:39;;;;;;;147.75;62.80;;;16.30;68.60;;;;;;5048610;28;20805;-78
2023/12/08 10:46:06;;;;;;;146.60;65.10;;;16.30;67.90;;;;;;5039915;28;20071;-79
2023/12/08 10:48:34;;;;;;;153.38;63.78;;;16.30;67.70;;;;;;5057067;28;20060;-86
2023/12/08 10:51:00;;;;;;;158.00;64.68;;;16.30;67.70;;;;;;5062470;28;20073;-81
2023/12/08 10:53:27;;;;;;;144.57;62.53;;;16.30;67.80;;;;;;5053071;28;20065;-78
2023/12/08 10:56:03;;;;;;;147.70;63.15;;;16.40;67.80;;;;;;5053214;28;20037;-82
2023/12/08 10:58:32;;;;;;;142.77;62.47;;;16.40;68.20;;;;;;5043729;28;20174;-78
2023/12/08 11:00:59;;;;;;;145.55;62.97;;;16.40;67.70;;;;;;5045954;28;20607;-79
2023/12/08 11:03:34;;;;;;;146.05;62.55;;;16.50;67.80;;;;;;5044119;28;20037;-78
2023/12/08 11:06:06;;;;;;;143.55;63.10;;;16.50;67.60;;;;;;5045879;28;20045;-77
2023/12/08 11:08:35;;;;;;;147.55;62.80;;;16.50;67.80;;;;;;5037841;28;20048;-80
2023/12/08 11:11:03;;;;;;;146.07;62.28;;;16.50;67.50;;;;;;5043323;28;20033;-76
2023/12/08 11:13:33;;;;;;;140.93;61.40;;;16.50;67.10;;;;;;5045452;28;20826;-80
2023/12/08 11:16:29;;;;;;;144.88;62.53;;;16.50;67.10;;;;;;5047005;28;20044;-77
2023/12/08 11:18:56;;;;;;;144.95;62.55;;;16.60;67.40;;;;;;5045052;28;20049;-75
2023/12/08 11:21:22;;;;;;;140.52;61.58;;;16.60;67.20;;;;;;5047394;28;20049;-82
2023/12/08 11:23:49;;;;;;;147.65;62.78;;;16.70;67.10;;;;;;5046702;28;20041;-83
2023/12/08 11:26:36;;;;;;;148.57;62.83;;;16.60;66.60;;;;;;5051917;28;20041;-86
2023/12/08 11:29:30;;;;;;;147.27;61.03;;;16.70;66.80;;;;;;5081329;22;20858;-36
2023/12/08 11:32:17;;;;;;;146.02;61.70;;;16.70;66.70;;;;;;5042003;28;20104;-35
2023/12/08 11:34:55;;;;;;;140.15;60.97;;;16.80;66.80;;;;;;5046634;28;20542;-36
2023/12/08 11:37:22;;;;;;;143.52;61.15;;;16.80;66.40;;;;;;5041319;28;20045;-36
2023/12/08 11:39:48;;;;;;;147.43;60.88;;;16.90;67.40;;;;;;5055608;28;20144;-35
2023/12/08 11:42:16;;;;;;;145.77;61.33;;;17.20;66.80;;;;;;5040596;28;20059;-35
2023/12/08 11:44:48;;;;;;;141.55;61.97;;;17.30;66.30;;;;;;5075693;22;20752;-82
2023/12/08 11:47:15;;;;;;;144.70;61.83;;;17.10;66.40;;;;;;5061409;28;20429;-83
2023/12/08 11:49:45;;;;;;;139.90;60.78;;;17.00;66.40;;;;;;5064889;28;20091;-82
2023/12/08 11:52:13;;;;;;;146.90;60.80;;;17.00;66.40;;;;;;5050007;28;20052;-78
2023/12/08 11:55:05;;;;;;;142.07;60.78;;;17.10;66.80;;;;;;5053817;28;20274;-81
2023/12/08 11:57:33;;;;;;;144.10;61.47;;;17.10;67.10;;;;;;5048700;28;20044;-83
2023/12/08 12:00:00;;;;;;;144.88;61.47;;;17.20;66.90;;;;;;5053936;28;20133;-82
2023/12/08 12:02:28;;;;;;;142.82;60.85;;;17.30;66.80;;;;;;5056320;28;20045;-81
2023/12/08 12:04:55;;;;;;;140.30;59.83;;;17.30;67.30;;;;;;5051462;28;20046;-81
2023/12/08 12:07:20;;;;;;;141.73;60.33;;;17.30;67.50;;;;;;5062156;28;20070;-80
2023/12/08 12:09:50;;;;;;;140.80;60.60;;;17.30;67.60;;;;;;5057626;28;20508;-83
2023/12/08 12:12:32;;;;;;;143.40;60.90;;;17.30;67.80;;;;;;5055077;28;20044;-79
2023/12/08 12:15:03;;;;;;;145.63;60.35;;;17.40;67.90;;;;;;5054893;28;20127;-80
2023/12/08 12:17:29;;;;;;;143.52;59.97;;;17.40;68.00;;;;;;5057287;28;20048;-85